KFMN/FMN METAR and TAF weather

Enter ICAO airport designator
Station Type Date Time Source
KFMN METAR 2022/05/23 14:53 UTC NOAA

KFMN 231453Z 27008KT 10SM CLR 16/M08 A3000 RMK AO2 SLP108 T01561083 51012


Station Type Date Time Source
KFMN Decoded METAR 2022/05/23 14:53 UTC NOAA

FARMINGTON FOUR CORNERS, NM, United States (KFMN) 36-45N 108-14W 1685M
May 23, 2022 - 10:53 AM EDT / 2022.05.23 1453 UTC
Wind: from the W (270 degrees) at 9 MPH (8 KT):0
Visibility: 10 mile(s):0
Sky conditions: clear
Temperature: 60.1 F (15.6 C)
Dew Point: 17.1 F (-8.3 C)
Relative Humidity: 18%
Pressure (altimeter): 30 in. Hg (1015 hPa)
Pressure tendency: 0.04 inches (1.2 hPa) higher than three hours ago
ob: KFMN 231453Z 27008KT 10SM CLR 16/M08 A3000 RMK AO2 SLP108 T01561083 51012
cycle: 15

Station Type Date Time Source
KFMN TAF 2022/05/23 12:24 UTC NOAA

TAF KFMN 231121Z 2312/2412 VRB06KT P6SM BKN100
FM231600 28011KT P6SM BKN100
FM231800 29018G28KT P6SM BKN100
FM240200 32011KT P6SM SCT100 BKN200
FM240500 VRB05KT P6SM SCT150

Example: see airport list